Time;durP1;ratioP1;P1;durP2;ratioP2;P2;SDS_P1;SDS_P2;PMS_P1;PMS_P2;Temp;Humidity;BMP_temperature;BMP_pressure;BME280_temperature;BME280_humidity;BME280_pressure;Samples;Min_cycle;Max_cycle;Signal;HPM_P1;HPM_P2
2022/02/18 00:01:46;;;;;;;8.50;2.97;;;;;;;7.28;80.37;153231.13;5082964;28;20916;-79
2022/02/18 00:04:22;;;;;;;9.33;3.33;;;;;;;7.27;80.21;153227.28;5090671;28;20940;-79
2022/02/18 00:06:58;;;;;;;11.37;3.87;;;;;;;7.26;81.21;153224.66;5108179;28;20519;-79
2022/02/18 00:09:33;;;;;;;7.47;3.30;;;;;;;7.24;79.03;153220.81;5094255;28;20452;-79
2022/02/18 00:12:11;;;;;;;8.20;3.50;;;;;;;7.27;80.02;153227.28;5089057;28;20471;-79
2022/02/18 00:14:47;;;;;;;8.37;2.90;;;;;;;7.24;79.73;153219.53;5087976;28;20464;-79
2022/02/18 00:17:24;;;;;;;14.17;4.10;;;;;;;7.19;79.36;153207.91;5084211;28;20433;-79
2022/02/18 00:20:00;;;;;;;8.00;3.13;;;;;;;7.20;80.54;153210.47;5088411;28;20453;-79
2022/02/18 00:22:35;;;;;;;10.30;2.80;;;;;;;7.17;79.34;153201.47;5104889;28;20444;-79
2022/02/18 00:25:11;;;;;;;11.33;2.73;;;;;;;7.17;79.98;153202.75;5098028;28;20938;-79
2022/02/18 00:27:48;;;;;;;12.27;3.00;;;;;;;7.21;81.89;153213.06;5082098;28;20558;-79
2022/02/18 00:30:24;;;;;;;7.13;2.30;;;;;;;7.20;82.24;153210.47;5091582;28;20535;-79
2022/02/18 00:32:59;;;;;;;6.50;2.33;;;;;;;7.22;79.85;153214.38;5091481;28;20456;-79
2022/02/18 00:35:35;;;;;;;9.97;3.80;;;;;;;7.24;79.62;153220.81;5084160;28;20457;-80
2022/02/18 00:38:11;;;;;;;9.00;3.43;;;;;;;7.25;78.88;153222.13;5094437;28;20780;-79
2022/02/18 00:40:46;;;;;;;5.90;3.00;;;;;;;7.25;79.83;153222.13;5103138;28;20455;-79
2022/02/18 00:43:23;;;;;;;8.30;2.97;;;;;;;7.21;80.33;153213.06;5108351;28;21077;-78
2022/02/18 00:45:59;;;;;;;7.33;3.50;;;;;;;7.23;80.04;153216.91;5091412;28;20436;-79
2022/02/18 00:48:35;;;;;;;10.93;3.13;;;;;;;7.24;79.82;153219.53;5092335;28;20443;-79
2022/02/18 00:51:11;;;;;;;8.73;2.43;;;;;;;7.27;79.33;153227.28;5106677;27;20462;-79
2022/02/18 00:53:46;;;;;;;6.10;3.17;;;;;;;7.29;78.86;153232.44;5088951;28;20888;-79
2022/02/18 00:56:22;;;;;;;9.70;3.30;;;;;;;7.30;81.57;153235.03;5105846;28;20455;-80
2022/02/18 00:59:00;;;;;;;5.00;2.60;;;;;;;7.24;82.89;153219.53;5093658;28;20508;-80
2022/02/18 01:01:36;;;;;;;10.80;3.00;;;;;;;7.22;80.99;153215.66;5108813;28;20444;-79
2022/02/18 01:04:13;;;;;;;11.10;3.00;;;;;;;7.23;81.30;153218.22;5105019;28;20452;-79
2022/02/18 01:06:48;;;;;;;8.27;2.60;;;;;;;7.23;80.05;153216.91;5088390;28;20444;-80
2022/02/18 01:09:24;;;;;;;9.90;3.30;;;;;;;7.23;80.37;153216.91;5088947;28;20457;-80
2022/02/18 01:12:00;;;;;;;8.00;2.67;;;;;;;7.18;82.32;153205.31;5107989;28;20441;-80
2022/02/18 01:14:37;;;;;;;6.70;2.63;;;;;;;7.18;80.33;153205.31;5092113;28;20457;-80
2022/02/18 01:17:13;;;;;;;11.93;3.10;;;;;;;7.20;82.58;153210.47;5110282;28;20468;-80
2022/02/18 01:19:49;;;;;;;8.80;2.90;;;;;;;7.17;80.49;153202.75;5099712;28;20448;-79
2022/02/18 01:22:24;;;;;;;4.60;3.17;;;;;;;7.23;82.46;153218.22;5122788;27;20441;-80
2022/02/18 01:25:00;;;;;;;7.47;2.90;;;;;;;7.21;82.77;153213.06;5090105;28;20444;-79
2022/02/18 01:27:36;;;;;;;7.87;2.57;;;;;;;7.22;82.65;153215.66;5105240;28;20444;-79
2022/02/18 01:30:13;;;;;;;10.07;3.03;;;;;;;7.23;81.95;153218.22;5107439;28;20472;-79
2022/02/18 01:32:49;;;;;;;12.80;3.30;;;;;;;7.24;81.51;153219.53;5108589;28;20480;-80
2022/02/18 01:35:24;;;;;;;12.07;3.10;;;;;;;7.21;82.79;153213.06;5092233;28;20444;-80
2022/02/18 01:38:01;;;;;;;6.83;2.50;;;;;;;7.22;84.08;153215.66;5093489;28;20864;-80
2022/02/18 01:40:37;;;;;;;7.37;2.83;;;;;;;7.17;81.37;153202.75;5090813;28;20861;-81
2022/02/18 01:43:13;;;;;;;8.47;3.77;;;;;;;7.17;82.44;153202.75;5090588;28;20479;-80
2022/02/18 01:45:50;;;;;;;6.10;2.83;;;;;;;7.19;80.91;153206.63;5102823;28;20539;-81
2022/02/18 01:48:26;;;;;;;7.30;2.07;;;;;;;7.24;82.43;153219.53;5125577;27;20922;-80
2022/02/18 01:51:02;;;;;;;8.07;3.23;;;;;;;7.19;82.67;153207.91;5091148;28;20455;-80
2022/02/18 01:53:38;;;;;;;6.23;2.57;;;;;;;7.17;81.29;153202.75;5092566;28;20509;-80
2022/02/18 01:56:14;;;;;;;7.20;3.00;;;;;;;7.25;82.32;153223.38;5108076;28;21006;-80
2022/02/18 01:58:50;;;;;;;6.00;2.27;;;;;;;7.23;81.32;153218.22;5089257;28;20455;-81
2022/02/18 02:01:27;;;;;;;6.43;2.20;;;;;;;7.22;83.10;153215.66;5086017;28;20531;-80
2022/02/18 02:04:07;;;;;;;7.43;2.70;;;;;;;7.20;82.52;153210.47;5107994;28;20456;-80
2022/02/18 02:06:42;;;;;;;9.30;3.10;;;;;;;7.26;83.01;153225.97;5108059;28;20931;-80
2022/02/18 02:09:19;;;;;;;9.70;2.30;;;;;;;7.33;82.53;153242.78;5086581;27;20449;-81
2022/02/18 02:11:56;;;;;;;8.63;3.40;;;;;;;7.26;82.70;153225.97;5086509;28;20437;-80
2022/02/18 02:14:33;;;;;;;13.13;2.87;;;;;;;7.22;81.58;153215.66;5092131;28;20463;-80
2022/02/18 02:17:10;;;;;;;8.00;2.87;;;;;;;7.22;82.65;153215.66;5092557;28;20471;-80
2022/02/18 02:19:46;;;;;;;7.50;2.70;;;;;;;7.23;84.23;153216.91;5107282;28;20452;-80
2022/02/18 02:22:25;;;;;;;7.60;2.60;;;;;;;7.23;82.51;153218.22;5087234;28;20448;-80
2022/02/18 02:25:01;;;;;;;6.40;1.80;;;;;;;7.24;81.13;153220.81;5087366;28;20444;-80
2022/02/18 02:27:40;;;;;;;8.07;2.57;;;;;;;7.26;82.41;153224.66;5091510;28;20440;-80
2022/02/18 02:30:17;;;;;;;5.83;2.30;;;;;;;7.25;81.88;153223.38;5093315;28;20444;-78
2022/02/18 02:32:53;;;;;;;6.33;2.00;;;;;;;7.24;82.04;153220.81;5088940;28;20487;-80
2022/02/18 02:35:29;;;;;;;8.13;3.10;;;;;;;7.27;82.63;153228.56;5091057;28;20456;-79
2022/02/18 02:38:10;;;;;;;6.27;2.57;;;;;;;7.24;83.25;153220.81;5091713;28;20437;-80
2022/02/18 02:40:46;;;;;;;6.20;2.80;;;;;;;7.25;80.93;153222.13;5090335;28;20449;-80
2022/02/18 02:43:23;;;;;;;5.13;2.53;;;;;;;7.23;83.01;153218.22;5086990;28;20476;-80
2022/02/18 02:45:59;;;;;;;5.77;2.80;;;;;;;7.22;83.58;153215.66;5103820;28;20447;-80
2022/02/18 02:48:35;;;;;;;9.10;2.40;;;;;;;7.20;82.28;153210.47;5105439;28;20457;-80
2022/02/18 02:51:35;;;;;;;4.83;2.17;;;;;;;7.21;82.58;153213.06;5081780;28;20449;-80
2022/02/18 02:54:12;;;;;;;8.00;2.80;;;;;;;7.17;82.70;153202.75;5086440;28;20943;-80
2022/02/18 02:56:47;;;;;;;7.57;3.23;;;;;;;7.20;83.52;153210.47;5089763;28;20566;-80
2022/02/18 02:59:35;;;;;;;6.87;2.57;;;;;;;7.14;86.15;153193.72;5091635;28;20461;-80
2022/02/18 03:02:11;;;;;;;5.23;2.10;;;;;;;7.13;83.94;153192.41;5089859;28;20439;-80
2022/02/18 03:04:49;;;;;;;4.97;2.50;;;;;;;7.16;83.76;153198.84;5089371;28;20472;-80
2022/02/18 03:07:25;;;;;;;3.30;2.03;;;;;;;7.13;83.30;153192.41;5094708;28;20432;-80
2022/02/18 03:10:09;;;;;;;7.30;2.80;;;;;;;7.22;82.35;153214.38;5088392;28;20823;-80
2022/02/18 03:12:45;;;;;;;7.13;2.90;;;;;;;7.16;83.52;153200.16;5091508;28;21654;-80
2022/02/18 03:15:23;;;;;;;9.07;2.80;;;;;;;7.13;84.05;153192.41;5105982;28;20437;-80
2022/02/18 03:17:58;;;;;;;6.53;2.33;;;;;;;7.10;83.33;153184.66;5090072;28;20483;-80
2022/02/18 03:20:35;;;;;;;6.10;2.87;;;;;;;7.07;83.53;153175.66;5084808;28;20936;-80
2022/02/18 03:23:12;;;;;;;8.60;2.43;;;;;;;7.08;83.82;153178.19;5085114;28;20449;-80
2022/02/18 03:25:49;;;;;;;5.77;2.10;;;;;;;7.06;83.52;153174.34;5091539;28;20479;-80
2022/02/18 03:28:24;;;;;;;5.27;2.23;;;;;;;7.08;83.54;153179.50;5085915;28;20476;-80
2022/02/18 03:31:00;;;;;;;10.83;2.10;;;;;;;7.06;84.72;153174.34;5107038;28;20428;-80
2022/02/18 03:33:39;;;;;;;3.97;2.33;;;;;;;7.06;83.89;153174.34;5087019;28;20449;-80
2022/02/18 03:36:15;;;;;;;8.23;2.30;;;;;;;7.03;85.17;153166.59;5085158;28;20555;-80
2022/02/18 03:38:51;;;;;;;7.53;2.00;;;;;;;7.04;85.68;153169.16;5090593;28;20845;-80
2022/02/18 03:41:30;;;;;;;5.70;2.93;;;;;;;7.03;84.10;153165.28;5083125;28;20441;-80
2022/02/18 03:44:07;;;;;;;7.07;2.93;;;;;;;7.03;83.47;153166.59;5085089;28;20477;-80
2022/02/18 03:46:50;;;;;;;7.53;2.53;;;;;;;7.04;86.08;153167.91;5091979;28;20543;-80
2022/02/18 03:49:26;;;;;;;9.30;2.70;;;;;;;7.03;86.25;153165.28;5085708;28;20448;-80
2022/02/18 03:52:02;;;;;;;5.67;1.90;;;;;;;7.05;86.44;153170.44;5087887;28;20904;-80
2022/02/18 03:54:37;;;;;;;7.20;2.10;;;;;;;7.02;86.61;153164.00;5091172;28;20452;-80
2022/02/18 03:57:14;;;;;;;7.30;2.93;;;;;;;7.01;87.99;153160.13;5101487;28;20839;-80
2022/02/18 03:59:51;;;;;;;6.40;2.20;;;;;;;7.01;85.83;153161.44;5089549;28;20451;-80
2022/02/18 04:02:27;;;;;;;8.43;2.13;;;;;;;7.03;85.25;153165.28;5087038;28;20481;-80
2022/02/18 04:05:06;;;;;;;7.77;1.90;;;;;;;7.00;86.65;153158.84;5106516;28;20440;-80
2022/02/18 04:07:54;;;;;;;4.40;2.40;;;;;;;6.99;86.26;153155.00;5107562;28;20536;-80
2022/02/18 04:10:29;;;;;;;11.07;2.30;;;;;;;6.96;85.02;153148.53;5102326;28;20443;-81
2022/02/18 04:13:07;;;;;;;3.77;2.10;;;;;;;6.99;86.61;153155.00;5090168;28;20439;-80
2022/02/18 04:15:43;;;;;;;8.67;2.93;;;;;;;7.01;84.41;153161.44;5088437;28;20447;-80
2022/02/18 04:18:19;;;;;;;5.03;3.53;;;;;;;6.99;85.26;153156.25;5092710;28;20839;-80
2022/02/18 04:21:00;;;;;;;8.00;3.83;;;;;;;6.97;85.46;153151.09;5087070;28;20444;-80
2022/02/18 04:23:56;;;;;;;4.77;2.67;;;;;;;6.93;85.46;153139.47;5105669;28;20456;-80
2022/02/18 04:26:31;;;;;;;6.23;2.73;;;;;;;6.96;86.26;153148.53;5090102;28;20453;-81
2022/02/18 04:29:09;;;;;;;6.40;3.00;;;;;;;6.95;86.84;153145.94;5098111;28;20834;-81
2022/02/18 04:31:46;;;;;;;9.50;3.07;;;;;;;7.03;86.79;153166.59;5102173;28;20448;-80
2022/02/18 04:34:22;;;;;;;7.03;3.37;;;;;;;6.97;85.05;153151.09;5102280;28;20547;-81
2022/02/18 04:36:57;;;;;;;5.67;3.30;;;;;;;6.95;85.80;153144.63;5089832;28;20463;-80
2022/02/18 04:39:33;;;;;;;7.87;4.97;;;;;;;6.98;85.58;153153.69;5103694;28;20802;-80
2022/02/18 04:42:09;;;;;;;10.90;5.70;;;;;;;6.97;85.54;153149.78;5104667;28;20440;-80
2022/02/18 04:44:46;;;;;;;9.73;4.73;;;;;;;6.98;85.28;153153.69;5089653;28;20835;-80
2022/02/18 04:47:22;;;;;;;7.70;4.60;;;;;;;6.99;85.64;153156.25;5101857;28;20452;-80
2022/02/18 04:49:58;;;;;;;8.60;4.80;;;;;;;7.01;85.95;153161.44;5098017;28;20531;-80
2022/02/18 04:52:33;;;;;;;5.40;2.77;;;;;;;7.11;86.01;153187.25;5100005;28;20447;-80
2022/02/18 04:55:09;;;;;;;10.00;2.63;;;;;;;7.08;85.71;153179.50;5091250;28;20466;-80
2022/02/18 04:57:49;;;;;;;6.90;2.67;;;;;;;7.22;85.18;153214.38;5104851;28;20480;-80
2022/02/18 05:00:26;;;;;;;5.97;2.80;;;;;;;7.22;85.27;153215.66;5123357;28;20444;-80
2022/02/18 05:03:02;;;;;;;5.30;2.23;;;;;;;7.20;85.35;153210.47;5106276;28;20792;-80
2022/02/18 05:05:37;;;;;;;6.20;3.00;;;;;;;7.40;84.48;153260.84;5102811;28;20801;-80
2022/02/18 05:08:13;;;;;;;8.17;2.60;;;;;;;7.19;85.04;153207.91;5088255;28;20966;-80
2022/02/18 05:10:51;;;;;;;7.20;2.70;;;;;;;7.11;87.91;153187.25;5104715;28;20572;-80
2022/02/18 05:13:27;;;;;;;4.93;2.47;;;;;;;7.08;86.51;153179.50;5103563;28;20995;-80
2022/02/18 05:16:04;;;;;;;6.70;2.77;;;;;;;7.15;85.67;153196.25;5122995;27;20441;-80
2022/02/18 05:18:40;;;;;;;8.13;3.10;;;;;;;7.17;85.61;153201.47;5110097;28;20472;-80
2022/02/18 05:21:17;;;;;;;7.13;3.00;;;;;;;7.10;86.55;153184.66;5108368;28;20432;-80
2022/02/18 05:23:53;;;;;;;5.90;2.47;;;;;;;7.08;86.68;153178.19;5092840;28;20461;-80
2022/02/18 05:26:29;;;;;;;7.23;2.63;;;;;;;7.09;86.21;153182.09;5106233;28;20509;-80
2022/02/18 05:29:05;;;;;;;6.30;2.53;;;;;;;7.12;86.70;153189.81;5093497;28;20455;-80
2022/02/18 05:31:42;;;;;;;4.80;3.10;;;;;;;7.14;86.08;153195.00;5086711;28;20959;-80
2022/02/18 05:34:23;;;;;;;7.67;2.23;;;;;;;7.15;85.85;153197.56;5109795;28;20531;-80
2022/02/18 05:36:58;;;;;;;8.63;2.53;;;;;;;7.13;86.20;153191.09;5105790;28;20808;-80
2022/02/18 05:39:34;;;;;;;5.90;2.63;;;;;;;7.26;85.19;153225.97;5124792;27;20470;-80
2022/02/18 05:42:09;;;;;;;4.77;2.60;;;;;;;7.27;85.22;153228.56;5106957;28;20440;-80
2022/02/18 05:44:45;;;;;;;6.50;2.63;;;;;;;7.25;85.35;153223.38;5106499;28;20469;-80
2022/02/18 05:47:22;;;;;;;8.80;2.77;;;;;;;7.27;85.08;153228.56;5092093;28;20455;-80
2022/02/18 05:49:57;;;;;;;4.57;2.87;;;;;;;7.28;86.01;153231.13;5102836;28;20447;-80
2022/02/18 05:52:33;;;;;;;5.90;3.10;;;;;;;7.25;86.14;153223.38;5105200;28;20433;-80
2022/02/18 05:55:09;;;;;;;7.17;2.63;;;;;;;7.23;86.57;153218.22;5084180;28;20436;-80
2022/02/18 05:57:45;;;;;;;8.37;3.33;;;;;;;7.26;86.10;153225.97;5084890;28;20868;-80
2022/02/18 06:00:24;;;;;;;7.83;4.50;;;;;;;7.24;85.15;153220.81;5093328;28;20923;-81
2022/02/18 06:03:01;;;;;;;7.70;4.50;;;;;;;7.22;84.92;153214.38;5108287;28;20448;-80
2022/02/18 06:05:36;;;;;;;5.40;2.80;;;;;;;7.27;85.80;153228.56;5106324;28;20456;-80
2022/02/18 06:08:12;;;;;;;7.77;3.03;;;;;;;7.27;85.73;153228.56;5109463;27;20444;-81
2022/02/18 06:10:48;;;;;;;5.53;2.73;;;;;;;7.24;85.67;153219.53;5102498;28;20946;-80
2022/02/18 06:13:24;;;;;;;4.97;3.03;;;;;;;7.27;84.82;153228.56;5090198;28;20796;-81
2022/02/18 06:15:59;;;;;;;9.60;2.70;;;;;;;7.27;85.23;153228.56;5085226;28;20439;-81
2022/02/18 06:18:36;;;;;;;8.80;2.40;;;;;;;7.25;85.60;153222.13;5107995;28;20558;-81
2022/02/18 06:21:12;;;;;;;6.07;2.20;;;;;;;7.25;85.28;153223.38;5104202;28;20450;-81
2022/02/18 06:23:47;;;;;;;6.27;2.77;;;;;;;7.25;85.09;153222.13;5105528;28;20978;-79
2022/02/18 06:26:23;;;;;;;5.90;2.70;;;;;;;7.23;85.69;153218.22;5106422;28;20802;-79
2022/02/18 06:28:58;;;;;;;8.07;2.47;;;;;;;7.23;88.30;153216.91;5106666;28;20448;-79
2022/02/18 06:31:34;;;;;;;6.10;2.80;;;;;;;7.20;86.50;153210.47;5101634;28;20452;-79
2022/02/18 06:34:11;;;;;;;9.30;2.50;;;;;;;7.25;85.36;153222.13;5122613;27;20841;-79
2022/02/18 06:36:47;;;;;;;7.77;3.60;;;;;;;7.25;84.79;153222.13;5089554;28;20444;-79
2022/02/18 06:39:25;;;;;;;4.90;2.60;;;;;;;7.25;87.89;153223.38;5107952;28;20541;-79
2022/02/18 06:42:00;;;;;;;9.80;3.30;;;;;;;7.24;86.21;153220.81;5105956;28;20809;-79
2022/02/18 06:44:36;;;;;;;7.50;2.80;;;;;;;7.31;85.41;153238.88;5090596;28;20901;-80
2022/02/18 06:47:12;;;;;;;5.50;2.67;;;;;;;7.34;86.27;153245.34;5088840;28;20802;-79
2022/02/18 06:49:49;;;;;;;3.93;2.20;;;;;;;7.32;84.73;153241.47;5091395;28;20833;-80
2022/02/18 06:52:25;;;;;;;5.17;2.47;;;;;;;7.35;84.36;153247.94;5089852;28;20440;-79
2022/02/18 06:55:06;;;;;;;6.00;2.23;;;;;;;7.40;84.02;153259.53;5105206;28;20428;-80
2022/02/18 06:57:43;;;;;;;8.00;2.20;;;;;;;7.45;84.95;153273.75;5090650;28;20487;-80
2022/02/18 07:00:19;;;;;;;6.27;2.70;;;;;;;7.51;85.26;153289.28;5104522;28;20444;-80
2022/02/18 07:02:54;;;;;;;5.37;2.60;;;;;;;7.50;85.26;153286.66;5082622;28;20448;-80
2022/02/18 07:05:31;;;;;;;5.50;2.53;;;;;;;7.50;86.96;153286.66;5087583;28;20500;-81
2022/02/18 07:08:06;;;;;;;8.73;3.30;;;;;;;7.57;85.17;153303.47;5101244;28;20448;-80
2022/02/18 07:10:42;;;;;;;6.53;2.83;;;;;;;7.57;85.36;153303.47;5083228;28;20456;-80
2022/02/18 07:13:19;;;;;;;6.77;3.17;;;;;;;7.58;86.21;153306.03;5106337;28;20468;-80
2022/02/18 07:15:55;;;;;;;9.57;2.93;;;;;;;7.61;84.54;153313.78;5088806;28;20819;-80
2022/02/18 07:18:30;;;;;;;6.67;2.43;;;;;;;7.66;84.59;153328.00;5106280;28;20466;-80
2022/02/18 07:21:08;;;;;;;6.53;2.77;;;;;;;7.71;84.53;153339.63;5082839;28;20436;-80
2022/02/18 07:23:43;;;;;;;6.43;2.30;;;;;;;7.72;85.27;153342.22;5088149;28;20484;-80
2022/02/18 07:26:18;;;;;;;7.10;2.73;;;;;;;7.76;84.30;153352.53;5088737;28;20454;-80
2022/02/18 07:28:54;;;;;;;10.00;2.97;;;;;;;7.82;84.52;153368.03;5102958;28;20444;-80
2022/02/18 07:31:31;;;;;;;6.53;2.63;;;;;;;7.87;83.54;153380.97;5090442;28;20452;-80
2022/02/18 07:34:06;;;;;;;6.73;2.40;;;;;;;7.87;84.57;153380.97;5104880;28;20436;-80
2022/02/18 07:36:43;;;;;;;8.43;2.70;;;;;;;7.93;84.47;153396.47;5102467;28;20449;-80
2022/02/18 07:39:19;;;;;;;6.57;2.80;;;;;;;7.97;84.91;153406.78;5090549;28;20462;-80
2022/02/18 07:41:54;;;;;;;11.70;3.57;;;;;;;7.95;85.76;153402.94;5087737;28;20463;-80
2022/02/18 07:44:35;;;;;;;11.03;2.50;;;;;;;7.96;85.13;153404.22;5084936;28;20472;-80
2022/02/18 07:47:12;;;;;;;5.07;1.80;;;;;;;8.00;86.22;153414.53;5103236;28;20444;-80
2022/02/18 07:49:48;;;;;;;9.20;2.20;;;;;;;8.04;85.52;153424.91;5106061;28;20455;-80
2022/02/18 07:52:26;;;;;;;9.20;2.20;;;;;;;8.05;85.50;153426.22;5090275;28;20447;-80
2022/02/18 07:55:01;;;;;;;4.83;2.03;;;;;;;8.09;85.70;153437.81;5106176;28;20448;-81
2022/02/18 07:57:37;;;;;;;8.57;1.80;;;;;;;8.16;87.48;153455.91;5091441;28;20544;-80
2022/02/18 08:00:14;;;;;;;7.07;2.47;;;;;;;8.22;86.62;153471.44;5102881;28;20949;-81
2022/02/18 08:02:50;;;;;;;5.80;2.13;;;;;;;8.24;86.05;153476.59;5105319;28;20440;-80
2022/02/18 08:05:26;;;;;;;6.03;1.90;;;;;;;8.19;87.11;153463.66;5103746;28;20534;-80
2022/02/18 08:08:02;;;;;;;3.63;1.60;;;;;;;8.37;85.59;153510.22;5123627;28;20444;-80
2022/02/18 08:10:38;;;;;;;3.90;2.10;;;;;;;8.36;87.06;153507.69;5103024;28;21186;-80
2022/02/18 08:13:15;;;;;;;7.87;1.90;;;;;;;8.39;87.56;153515.38;5101344;28;20476;-80
2022/02/18 08:15:50;;;;;;;5.20;2.10;;;;;;;8.43;86.52;153525.75;5091500;28;20475;-79
2022/02/18 08:18:26;;;;;;;3.80;1.30;;;;;;;8.51;88.24;153546.44;5101752;28;20460;-79
2022/02/18 08:21:01;;;;;;;5.83;2.03;;;;;;;8.51;87.54;153545.13;5088158;28;20813;-80
2022/02/18 08:23:38;;;;;;;7.10;1.93;;;;;;;8.53;88.15;153551.59;5104623;28;20443;-79
2022/02/18 08:26:14;;;;;;;3.10;1.67;;;;;;;8.62;88.00;153572.28;5102812;28;20946;-80
2022/02/18 08:28:53;;;;;;;3.43;1.40;;;;;;;8.68;88.65;153587.81;5104639;28;20452;-79
2022/02/18 08:31:29;;;;;;;5.03;1.80;;;;;;;8.71;88.34;153595.56;5086398;28;20449;-79
2022/02/18 08:34:04;;;;;;;2.57;1.60;;;;;;;8.79;89.46;153616.25;5105064;28;20456;-79
2022/02/18 08:36:40;;;;;;;6.53;2.10;;;;;;;8.84;89.38;153629.19;5102670;28;20460;-79
2022/02/18 08:39:17;;;;;;;2.87;1.50;;;;;;;8.81;89.42;153621.41;5104698;28;20472;-79
2022/02/18 08:41:52;;;;;;;9.63;1.90;;;;;;;8.91;88.99;153647.28;5081356;28;20444;-79
2022/02/18 08:44:28;;;;;;;2.77;1.40;;;;;;;9.05;89.90;153683.50;5101978;28;20494;-79
2022/02/18 08:47:04;;;;;;;2.33;1.03;;;;;;;9.09;90.36;153695.13;5087576;28;20547;-79
2022/02/18 08:49:42;;;;;;;2.90;1.50;;;;;;;9.08;91.55;153691.25;5091186;28;20452;-79
2022/02/18 08:52:17;;;;;;;2.20;1.20;;;;;;;9.23;90.00;153730.03;5093048;28;20448;-79
2022/02/18 08:54:54;;;;;;;5.37;1.33;;;;;;;9.32;89.81;153753.31;5106971;28;20448;-79
2022/02/18 08:57:31;;;;;;;2.13;1.00;;;;;;;9.44;89.90;153783.06;5107924;28;20527;-79
2022/02/18 09:00:09;;;;;;;2.63;1.27;;;;;;;9.47;90.09;153792.13;5107533;28;20443;-79
2022/02/18 09:02:45;;;;;;;6.63;1.50;;;;;;;9.47;90.77;153792.13;5093828;28;20547;-80
2022/02/18 09:05:21;;;;;;;5.83;1.80;;;;;;;9.55;90.06;153812.84;5125243;27;20837;-79
2022/02/18 09:07:57;;;;;;;2.50;1.33;;;;;;;9.65;90.33;153838.72;5108144;28;20424;-79
2022/02/18 09:10:34;;;;;;;2.20;1.20;;;;;;;9.83;89.80;153883.97;5102186;28;20566;-79
2022/02/18 09:13:09;;;;;;;3.03;1.33;;;;;;;9.95;88.30;153913.75;5092619;28;20855;-79
2022/02/18 09:15:45;;;;;;;2.87;1.43;;;;;;;9.97;88.42;153918.91;5103584;28;20703;-79
2022/02/18 09:18:31;;;;;;;2.37;1.00;;;;;;;10.10;88.09;153953.88;5102394;28;20464;-80
2022/02/18 09:21:07;;;;;;;2.30;0.90;;;;;;;10.16;87.59;153969.47;5098469;28;20452;-79
2022/02/18 09:23:42;;;;;;;2.90;0.90;;;;;;;10.22;87.53;153984.97;5091370;28;20452;-79
2022/02/18 09:26:20;;;;;;;2.60;1.57;;;;;;;10.37;87.12;154022.53;5103845;28;20451;-79
2022/02/18 09:28:56;;;;;;;2.03;1.33;;;;;;;10.46;88.11;154044.56;5091061;28;20443;-80
2022/02/18 09:31:32;;;;;;;1.60;0.93;;;;;;;10.58;87.46;154075.59;5104290;28;20444;-79
2022/02/18 09:34:09;;;;;;;2.17;0.80;;;;;;;10.64;88.19;154092.47;5103625;28;20457;-81
2022/02/18 09:36:44;;;;;;;2.07;0.93;;;;;;;10.80;87.59;154133.84;5088663;28;20452;-80
2022/02/18 09:39:21;;;;;;;1.67;0.90;;;;;;;10.94;87.38;154170.13;5087356;28;20452;-80
2022/02/18 09:41:58;;;;;;;2.00;1.10;;;;;;;10.91;87.42;154162.34;5105053;28;20475;-80
2022/02/18 09:44:33;;;;;;;2.00;0.70;;;;;;;10.97;87.47;154177.91;5109728;27;20572;-80
2022/02/18 09:47:09;;;;;;;1.90;0.53;;;;;;;11.04;87.43;154193.47;5106896;28;20474;-80
2022/02/18 09:49:46;;;;;;;3.47;0.80;;;;;;;11.18;86.26;154231.00;5108919;28;20448;-80
2022/02/18 09:52:22;;;;;;;1.23;0.60;;;;;;;11.27;86.21;154253.03;5107393;28;20440;-80
2022/02/18 09:54:58;;;;;;;1.77;0.70;;;;;;;11.30;86.94;154260.81;5103450;28;20481;-80
2022/02/18 09:57:35;;;;;;;2.80;0.80;;;;;;;11.42;87.02;154291.91;5108760;28;20470;-80
2022/02/18 10:00:12;;;;;;;1.27;1.00;;;;;;;11.59;85.86;154335.97;5106837;28;20563;-80
2022/02/18 10:02:52;;;;;;;1.30;0.60;;;;;;;11.63;85.33;154347.63;5103456;28;20449;-80
2022/02/18 10:05:27;;;;;;;0.90;0.57;;;;;;;11.77;84.86;154382.66;5107034;28;20531;-80
2022/02/18 10:08:08;;;;;;;2.20;1.00;;;;;;;11.78;85.19;154385.22;5101441;27;20441;-80
2022/02/18 10:10:57;;;;;;;1.87;0.83;;;;;;;11.74;86.60;154374.88;5102614;28;20444;-80
2022/02/18 10:13:37;;;;;;;6.00;0.80;;;;;;;11.68;86.65;154359.28;5091665;28;20456;-80
2022/02/18 10:16:14;;;;;;;3.57;0.93;;;;;;;11.75;85.29;154377.50;5105465;28;20487;-81
2022/02/18 10:18:52;;;;;;;1.50;0.70;;;;;;;11.93;85.04;154422.84;5108976;28;20468;-80
2022/02/18 10:21:30;;;;;;;1.67;0.70;;;;;;;11.87;86.28;154407.28;5104859;28;20452;-80
2022/02/18 10:24:07;;;;;;;1.43;0.60;;;;;;;12.08;84.26;154463.03;5098142;28;20444;-80
2022/02/18 10:26:44;;;;;;;3.47;0.83;;;;;;;12.16;84.30;154483.78;5089711;28;20543;-80
2022/02/18 10:29:26;;;;;;;2.40;0.80;;;;;;;12.21;83.56;154496.72;5089249;28;20643;-80
2022/02/18 10:32:09;;;;;;;2.00;0.90;;;;;;;12.45;82.24;154556.34;5084614;28;20441;-80
2022/02/18 10:34:51;;;;;;;2.37;0.70;;;;;;;12.49;82.43;154566.75;5100745;28;20464;-80
2022/02/18 10:37:36;;;;;;;3.23;0.90;;;;;;;12.42;83.16;154549.88;5103663;28;20521;-80
2022/02/18 10:40:14;;;;;;;1.43;0.73;;;;;;;12.46;84.13;154558.97;5101090;28;20802;-81
2022/02/18 10:42:51;;;;;;;2.47;0.83;;;;;;;12.54;83.10;154579.72;5124820;27;20476;-80
2022/02/18 10:45:28;;;;;;;2.13;0.90;;;;;;;12.68;82.73;154616.03;5087430;28;20456;-80
2022/02/18 10:48:07;;;;;;;2.90;1.30;;;;;;;12.69;82.00;154618.63;5107967;27;20780;-80
2022/02/18 10:50:43;;;;;;;1.73;0.90;;;;;;;12.69;83.01;154619.91;5105008;28;20453;-80
2022/02/18 10:53:20;;;;;;;2.60;0.90;;;;;;;12.83;82.48;154656.25;5107096;28;20583;-80
2022/02/18 10:55:57;;;;;;;3.00;1.00;;;;;;;12.90;82.12;154673.09;5099088;28;20463;-81
2022/02/18 10:58:33;;;;;;;2.30;0.77;;;;;;;13.06;82.34;154713.28;5100938;28;20469;-80
2022/02/18 11:01:12;;;;;;;1.20;0.80;;;;;;;13.17;82.82;154743.22;5100605;28;20447;-80
2022/02/18 11:03:49;;;;;;;1.63;0.80;;;;;;;13.34;81.78;154786.03;5107493;27;20946;-80
2022/02/18 11:06:26;;;;;;;6.23;1.03;;;;;;;13.45;80.07;154814.53;5087963;28;20451;-80
2022/02/18 11:09:04;;;;;;;2.67;1.00;;;;;;;13.62;80.22;154857.38;5101591;28;20468;-81
2022/02/18 11:11:41;;;;;;;3.13;1.63;;;;;;;13.65;78.26;154865.19;5108212;27;20531;-80
2022/02/18 11:14:18;;;;;;;5.70;1.10;;;;;;;13.74;78.40;154888.56;5105102;28;20459;-81
2022/02/18 11:16:55;;;;;;;3.70;0.80;;;;;;;13.93;77.12;154939.16;5086986;28;20444;-80
2022/02/18 11:19:31;;;;;;;3.80;0.73;;;;;;;13.98;75.63;154952.13;5101389;28;20469;-80
2022/02/18 11:22:07;;;;;;;1.13;0.63;;;;;;;13.97;75.53;154948.25;5084604;28;20441;-80
2022/02/18 11:24:45;;;;;;;1.93;0.77;;;;;;;14.12;74.37;154987.19;5105573;28;20436;-81
2022/02/18 11:27:21;;;;;;;2.07;0.70;;;;;;;14.04;75.55;154967.72;5101863;28;20448;-81
2022/02/18 11:29:57;;;;;;;4.00;0.97;;;;;;;14.15;74.19;154995.00;5106539;28;20823;-80
2022/02/18 11:32:38;;;;;;;2.07;0.83;;;;;;;14.06;74.21;154971.59;5104745;28;20432;-81
2022/02/18 11:35:27;;;;;;;3.00;0.87;;;;;;;14.01;73.62;154959.94;5090173;28;20853;-81
2022/02/18 11:38:29;;;;;;;2.23;0.80;;;;;;;14.06;74.56;154971.59;5090068;28;20448;-81
2022/02/18 11:41:17;;;;;;;2.90;0.97;;;;;;;14.07;72.67;154974.22;5104567;28;20459;-81
2022/02/18 11:43:53;;;;;;;2.83;0.90;;;;;;;14.11;74.39;154984.59;5105982;28;20494;-81
2022/02/18 11:46:29;;;;;;;2.03;0.80;;;;;;;14.29;74.38;155030.06;5105196;28;20926;-81
2022/02/18 11:49:09;;;;;;;3.13;1.20;;;;;;;14.27;75.50;155026.13;5106274;28;20510;-81
2022/02/18 11:51:45;;;;;;;2.00;0.93;;;;;;;14.33;74.35;155040.47;5103834;28;20455;-81
2022/02/18 11:54:25;;;;;;;1.93;0.77;;;;;;;14.32;76.94;155039.16;5090568;28;20834;-81
2022/02/18 11:57:03;;;;;;;3.40;0.80;;;;;;;14.41;72.89;155062.56;5102141;28;20416;-81
2022/02/18 11:59:57;;;;;;;1.50;0.63;;;;;;;14.57;71.27;155104.13;5106060;28;20456;-81
2022/02/18 12:02:37;;;;;;;2.20;1.27;;;;;;;14.55;73.12;155098.94;5104105;28;20638;-80
2022/02/18 12:05:15;;;;;;;2.73;0.90;;;;;;;14.47;74.04;155076.84;5090961;28;20437;-80
2022/02/18 12:07:51;;;;;;;4.37;1.13;;;;;;;14.41;73.18;155062.56;5103749;28;20448;-81
2022/02/18 12:10:29;;;;;;;5.50;1.00;;;;;;;14.63;70.91;155119.72;5088199;28;20553;-81
2022/02/18 12:13:06;;;;;;;2.13;0.70;;;;;;;14.77;71.08;155154.81;5120278;28;20479;-81
2022/02/18 12:15:41;;;;;;;1.13;0.70;;;;;;;14.77;71.72;155153.50;5086243;28;20451;-81
2022/02/18 12:18:21;;;;;;;2.03;0.80;;;;;;;14.78;69.15;155156.06;5104213;28;20444;-81